createdAt,value
2023-01-11T00:02:28.303Z,69.50
2023-01-11T00:07:32.057Z,69.50
2023-01-11T00:12:35.443Z,70.33
2023-01-11T00:17:38.878Z,69.00
2023-01-11T00:22:42.231Z,65.00
2023-01-11T00:27:47.508Z,67.00
2023-01-11T00:32:56.125Z,65.00
2023-01-11T00:37:59.599Z,62.33
2023-01-11T00:43:21.430Z,61.67
2023-01-11T00:48:24.895Z,65.00
2023-01-11T00:53:28.286Z,60.00
2023-01-11T00:58:31.647Z,65.00
2023-01-11T01:03:35.133Z,68.33
2023-01-11T01:08:38.653Z,60.50
2023-01-11T01:14:00.697Z,58.00
2023-01-11T01:19:04.392Z,49.50
2023-01-11T01:24:08.061Z,46.00
2023-01-11T01:29:12.124Z,53.50
2023-01-11T01:34:15.726Z,54.00
2023-01-11T01:39:19.350Z,60.00
2023-01-11T01:45:02.532Z,56.00
2023-01-11T01:50:25.720Z,59.00
2023-01-11T01:55:33.708Z,54.33
2023-01-11T02:00:41.012Z,61.50
2023-01-11T02:05:45.035Z,57.50
2023-01-11T02:10:50.150Z,56.33
2023-01-11T02:16:08.131Z,61.00
2023-01-11T02:21:44.763Z,56.00
2023-01-11T02:27:15.992Z,53.00
2023-01-11T02:32:22.416Z,61.50
2023-01-11T02:37:51.500Z,54.50
2023-01-11T02:43:48.332Z,57.00
2023-01-11T02:49:20.401Z,59.00
2023-01-11T02:54:24.700Z,55.33
2023-01-11T02:59:32.447Z,58.00
2023-01-11T03:04:37.412Z,57.00
2023-01-11T03:09:43.727Z,48.00
2023-01-11T03:15:05.152Z,50.50
2023-01-11T03:20:28.919Z,43.50
2023-01-11T03:25:35.392Z,53.00
2023-01-11T03:31:07.173Z,59.33
2023-01-11T03:36:19.699Z,60.00
2023-01-11T03:41:27.218Z,55.50
2023-01-11T03:46:39.224Z,49.50
2023-01-11T03:51:45.203Z,52.67
2023-01-11T03:57:03.680Z,51.50
2023-01-11T04:02:20.286Z,53.50
2023-01-11T04:07:23.805Z,59.00
2023-01-11T04:12:27.878Z,58.00
2023-01-11T04:17:32.471Z,63.00
2023-01-11T04:22:36.009Z,71.50
2023-01-11T04:27:40.727Z,84.00
2023-01-11T04:32:44.172Z,78.67
2023-01-11T04:37:48.173Z,0.00
2023-01-11T04:42:51.834Z,79.33
2023-01-11T04:47:56.729Z,81.00
2023-01-11T04:53:00.740Z,86.00
2023-01-11T04:58:04.242Z,77.50
2023-01-11T05:03:07.709Z,75.00
2023-01-11T05:08:11.049Z,77.00
2023-01-11T05:13:14.486Z,72.67
2023-01-11T05:18:17.911Z,66.00
2023-01-11T05:23:21.385Z,63.67
2023-01-11T05:28:24.900Z,70.00
2023-01-11T05:33:28.868Z,65.00
2023-01-11T05:38:33.315Z,66.00
2023-01-11T05:43:57.615Z,65.33
2023-01-11T05:49:01.810Z,65.00
2023-01-11T05:54:11.175Z,66.50
2023-01-11T05:59:14.688Z,65.00
2023-01-11T06:04:18.087Z,64.00
2023-01-11T06:09:21.467Z,62.00
2023-01-11T06:14:24.813Z,62.33
2023-01-11T06:19:28.258Z,63.00
2023-01-11T06:24:31.661Z,63.00
2023-01-11T06:29:35.166Z,61.50
2023-01-11T06:34:38.634Z,57.00
2023-01-11T06:39:42.084Z,67.00
2023-01-11T06:44:45.564Z,69.00
2023-01-11T06:49:48.931Z,67.00
2023-01-11T06:54:52.321Z,72.00
2023-01-11T06:59:55.800Z,65.00
2023-01-11T07:04:59.286Z,61.00
2023-01-11T07:10:03.927Z,60.00
2023-01-11T07:15:09.876Z,65.33
2023-01-11T07:20:13.822Z,74.50
2023-01-11T07:25:18.045Z,73.00
2023-01-11T07:30:21.670Z,58.00
2023-01-11T07:35:26.856Z,72.33
2023-01-11T07:40:31.403Z,67.67
2023-01-11T07:45:45.314Z,67.00
2023-01-11T07:50:49.764Z,72.00
2023-01-11T07:55:55.700Z,65.50
2023-01-11T08:01:00.163Z,71.00
2023-01-11T08:06:03.744Z,69.00
2023-01-11T08:11:26.730Z,59.00
2023-01-11T08:16:30.215Z,64.50
2023-01-11T08:21:33.624Z,68.67
2023-01-11T08:26:37.131Z,64.00
2023-01-11T08:31:43.583Z,58.00
2023-01-11T08:36:47.141Z,52.00
2023-01-11T08:41:50.868Z,48.33
2023-01-11T08:46:54.377Z,57.50
2023-01-11T08:51:57.905Z,56.00
2023-01-11T08:57:01.356Z,49.00
2023-01-11T09:02:06.291Z,53.67
2023-01-11T09:07:09.757Z,60.33
2023-01-11T09:12:14.609Z,55.00
2023-01-11T09:17:18.029Z,49.67
2023-01-11T09:22:21.557Z,48.00
2023-01-11T09:27:25.274Z,53.00
2023-01-11T09:32:28.879Z,43.00
2023-01-11T09:37:32.955Z,34.50
2023-01-11T09:42:40.079Z,37.50
2023-01-11T09:48:05.128Z,33.00
2023-01-11T09:53:14.046Z,40.00
2023-01-11T09:58:49.136Z,36.50
2023-01-11T10:04:16.585Z,30.00
2023-01-11T10:18:31.226Z,22.00
2023-01-11T10:20:46.709Z,42.00
2023-01-11T10:25:54.455Z,32.00
2023-01-11T10:30:58.333Z,24.00
2023-01-11T10:36:29.313Z,27.00
2023-01-11T10:42:00.942Z,31.00
2023-01-11T10:47:08.040Z,32.50
2023-01-11T10:52:30.851Z,27.00
2023-01-11T10:58:05.142Z,32.00
2023-01-11T11:03:17.665Z,25.67
2023-01-11T11:08:34.137Z,20.00
2023-01-11T11:13:44.883Z,18.00
2023-01-11T11:18:49.936Z,14.50
2023-01-11T11:24:02.002Z,16.67
2023-01-11T11:29:10.547Z,21.00
2023-01-11T11:34:17.526Z,23.67
2023-01-11T11:39:25.409Z,18.50
2023-01-11T11:44:28.881Z,17.50
2023-01-11T11:49:34.536Z,15.00
2023-01-11T11:54:48.847Z,18.00
2023-01-11T12:00:20.229Z,20.00
2023-01-11T12:05:24.462Z,21.50
2023-01-11T12:10:30.001Z,17.00
2023-01-11T12:15:34.854Z,17.00
2023-01-11T12:20:41.387Z,17.00
2023-01-11T12:26:13.127Z,16.50
2023-01-11T12:31:54.923Z,20.00
2023-01-11T12:37:16.795Z,24.00
2023-01-11T12:42:39.001Z,10.00
2023-01-11T12:48:04.343Z,26.00
2023-01-11T12:53:07.749Z,19.50
2023-01-11T12:58:31.518Z,14.67
2023-01-11T13:03:51.262Z,14.50
2023-01-11T13:08:57.783Z,21.00
2023-01-11T13:14:22.417Z,17.50
2023-01-11T13:19:46.777Z,20.50
2023-01-11T13:24:51.563Z,15.00
2023-01-11T13:29:59.434Z,14.50
2023-01-11T13:35:16.041Z,18.50
2023-01-11T13:40:38.907Z,19.00
2023-01-11T13:45:59.705Z,22.33
2023-01-11T13:51:13.504Z,16.50
2023-01-11T13:56:26.101Z,15.00
2023-01-11T14:01:53.830Z,23.00
2023-01-11T14:07:22.136Z,20.00
2023-01-11T14:12:58.774Z,26.00
2023-01-11T14:18:05.758Z,27.33
2023-01-11T14:23:21.101Z,28.33
2023-01-11T14:29:06.433Z,32.00
2023-01-11T14:34:40.289Z,38.00
2023-01-11T14:39:46.439Z,36.00
2023-01-11T14:45:24.989Z,45.50
2023-01-11T14:50:28.426Z,49.33
2023-01-11T14:55:37.764Z,56.00
2023-01-11T15:00:44.246Z,61.00
2023-01-11T15:05:54.582Z,76.00
2023-01-11T15:10:57.953Z,71.50
2023-01-11T15:16:47.400Z,61.00
2023-01-11T15:21:53.474Z,52.00
2023-01-11T15:26:59.786Z,54.50
2023-01-11T15:32:05.190Z,59.00
2023-01-11T15:37:34.779Z,77.00
2023-01-11T15:42:38.131Z,77.00
2023-01-11T15:47:50.584Z,80.00
2023-01-11T15:53:21.617Z,76.00
2023-01-11T15:58:50.051Z,67.00
2023-01-11T16:04:06.108Z,78.00
2023-01-11T16:09:13.372Z,93.00
2023-01-11T16:14:49.258Z,82.50
2023-01-11T16:19:57.152Z,89.67
2023-01-11T16:25:01.833Z,93.00
2023-01-11T16:30:09.024Z,81.50
2023-01-11T16:35:22.163Z,96.67
2023-01-11T16:40:32.083Z,78.00
2023-01-11T16:45:46.108Z,76.00
2023-01-11T16:51:11.416Z,79.00
2023-01-11T16:56:23.810Z,71.00
2023-01-11T17:01:27.514Z,87.50
2023-01-11T17:06:34.812Z,100.67
2023-01-11T17:11:44.584Z,76.00
2023-01-11T17:16:51.179Z,111.00
2023-01-11T17:22:00.667Z,110.00
2023-01-11T17:27:06.673Z,77.33
2023-01-11T17:32:34.240Z,87.00
2023-01-11T17:37:37.952Z,88.00
2023-01-11T17:43:00.227Z,97.00
2023-01-11T17:48:13.187Z,104.00
2023-01-11T17:53:32.518Z,90.00
2023-01-11T17:58:37.953Z,125.00
2023-01-11T18:03:57.928Z,147.00
2023-01-11T18:09:04.589Z,108.50
2023-01-11T18:14:18.708Z,104.33
2023-01-11T18:19:42.759Z,106.50
2023-01-11T18:24:53.588Z,138.33
2023-01-11T18:30:01.319Z,144.00
2023-01-11T18:35:12.867Z,114.33
2023-01-11T18:40:18.515Z,126.67
2023-01-11T18:45:25.080Z,115.00
2023-01-11T18:50:28.902Z,101.00
2023-01-11T18:55:32.420Z,148.00
2023-01-11T19:00:36.603Z,110.00
2023-01-11T19:05:40.267Z,106.33
2023-01-11T19:10:43.893Z,107.00
2023-01-11T19:15:47.713Z,113.00
2023-01-11T19:20:51.148Z,125.50
2023-01-11T19:25:58.491Z,128.00
2023-01-11T19:31:06.794Z,112.00
2023-01-11T19:36:11.064Z,106.00
2023-01-11T19:41:16.809Z,108.00
2023-01-11T19:46:31.027Z,117.25
2023-01-11T19:51:35.292Z,114.75
2023-01-11T19:56:38.990Z,121.00
2023-01-11T20:01:43.510Z,115.00
2023-01-11T20:06:50.349Z,114.50
2023-01-11T20:11:55.586Z,151.00
2023-01-11T20:16:59.147Z,167.00
2023-01-11T20:22:02.854Z,171.00
2023-01-11T20:27:06.593Z,159.33
2023-01-11T20:32:34.824Z,113.67
2023-01-11T20:37:34.328Z,119.67
2023-01-11T20:42:38.036Z,133.67
2023-01-11T20:47:41.790Z,141.50
2023-01-11T20:52:45.511Z,132.00
2023-01-11T20:57:51.565Z,99.50
2023-01-11T21:02:55.090Z,115.00
2023-01-11T21:07:58.681Z,102.00
2023-01-11T21:13:03.941Z,90.50
2023-01-11T21:18:07.456Z,111.33
2023-01-11T21:23:15.378Z,108.50
2023-01-11T21:28:18.827Z,95.00
2023-01-11T21:33:24.241Z,104.00
2023-01-11T21:38:30.825Z,73.00
2023-01-11T21:43:36.507Z,95.67
2023-01-11T21:48:40.761Z,86.00
2023-01-11T21:53:44.235Z,72.00
2023-01-11T21:58:47.644Z,62.50
2023-01-11T22:03:51.312Z,72.33
2023-01-11T22:08:55.427Z,77.00
2023-01-11T22:13:59.860Z,84.00
2023-01-11T22:19:06.352Z,66.00
2023-01-11T22:24:11.965Z,64.00
2023-01-11T22:29:15.581Z,74.00
2023-01-11T22:34:19.760Z,73.67
2023-01-11T22:39:24.260Z,75.67
2023-01-11T22:44:27.765Z,65.33
2023-01-11T22:49:31.186Z,86.00
2023-01-11T22:54:35.028Z,81.50
2023-01-11T22:59:38.994Z,90.00
2023-01-11T23:04:42.523Z,102.00
2023-01-11T23:09:45.953Z,81.00
2023-01-11T23:14:49.378Z,73.50
2023-01-11T23:19:52.821Z,57.33
2023-01-11T23:24:56.175Z,58.00
2023-01-11T23:29:59.558Z,66.00
2023-01-11T23:35:04.477Z,53.00
2023-01-11T23:40:08.848Z,51.00
2023-01-11T23:45:12.318Z,55.00
2023-01-11T23:50:16.018Z,59.00
2023-01-11T23:55:19.409Z,53.33
